Aérodrome :
LOGIN :

S'inscrire | Disclaimer

   EN    FR    IT 

 










Légende :    VFR   VFR Marginal   IFR   IFR Intensif   IFR Très Intensif
Visi : 
Plafond : 
>= 8 km
>= 3000ft
5 à 8 km
1000 à 3000 ft
1500m à 5 km
500 à 1000 ft
800 à 1500m
200 à 500 ft
< 800m
< 200 ft
Symboles :   Orages  Brouillard  Fortes neiges  Fortes précipitations  Vent > 20 kt
SIGMETs :   Divers  Orages  Givrage  Turbulence  Onde Orograph.  Cendres Volcan.







- Altitude de l'aérodrome : 138 ft
- Code IATA : BIO


LEBB - Bilbao

DERNIER METAR :
  • 220030Z AUTO 10006KT 9999 NCD 21/11 Q1016

METARs EXPIRÉS :
  • 220000Z AUTO 11005KT 090V160 9999 NCD 19/11 Q1016
  • 212330Z AUTO 15006KT 110V200 9999 NCD 20/11 Q1015
  • 212300Z AUTO 12006KT 080V160 9999 NCD 21/11 Q1015
  • 212230Z AUTO 13008KT CAVOK 21/11 Q1015
  • 212200Z AUTO 15008KT CAVOK 21/10 Q1015

TAF TAF LEBB
Valide du 22 à 00h jusqu'au 23 à 00h UTC


212300Z 2200/2224 17009KT CAVOK TX25/2214Z TN14/2206Z
BECMG 2206/2210 34010KT
PROB40
TEMPO 2215/2224 SHRA TS SCT030TCU SCT040CB
PROB40
TEMPO 2218/2224 3000 BR BKN005 BKN010
Pas de NOTAMs connus pour ce terrain.
2 SIGMETs publiés pour la FIR Madrid (LECM) :
 
Orages noyés dans la masse
LECM SIGMET 7 VALID 220000/220400 LEVA
LECM MADRID FIR/UIR EMBD TS FCST WI N4002 W00440 - N3554 W00419 - N3556 W00735 - N4001 W00658 - N4002 W00440 TOP FL300 STNR NC=
Orages noyés dans la masse
LECM SIGMET 6 VALID 212000/212400 LEVA
LECM MADRID FIR/UIR EMBD TS FCST W OF LINE N4003 W00501 - N3552 W00426 TOP FL300 STNR NC=



MET'MAP, la Météo Aéronautique d'un coup d'oeil ! - Copyright ORBIFLY Décembre 2007 - Disclaimer

ORBIFLY MET'MAP TEAM :

Programmation & Développement : Alexandra Zaïnal
Conception & Développement : Baudouin d'Aumeries
Co-Programmation & Développement : Marc-Olivier Méhu
Soutien technique & logistique : Manuel Goepfert

Contact : metmap@orbifly.com




SOURCES & CREDITS :

   NOAA